createdAt,value
2019-02-09T00:01:43.555Z,1.50
2019-02-09T00:04:13.188Z,1.77
2019-02-09T00:06:42.509Z,1.75
2019-02-09T00:09:12.811Z,1.73
2019-02-09T00:11:42.421Z,2.00
2019-02-09T00:14:12.297Z,2.12
2019-02-09T00:16:41.616Z,2.20
2019-02-09T00:19:11.210Z,2.00
2019-02-09T00:21:40.825Z,1.63
2019-02-09T00:24:10.394Z,2.30
2019-02-09T00:26:41.651Z,2.70
2019-02-09T00:29:11.280Z,2.22
2019-02-09T00:31:40.894Z,1.93
2019-02-09T00:34:10.770Z,1.70
2019-02-09T00:36:40.687Z,1.37
2019-02-09T00:39:10.915Z,2.70
2019-02-09T00:41:40.777Z,1.77
2019-02-09T00:44:10.332Z,2.40
2019-02-09T00:46:39.647Z,1.70
2019-02-09T00:49:09.227Z,1.63
2019-02-09T00:51:38.850Z,2.00
2019-02-09T00:54:08.453Z,2.63
2019-02-09T00:56:37.774Z,2.60
2019-02-09T00:59:07.434Z,2.17
2019-02-09T01:01:37.044Z,2.33
2019-02-09T01:04:06.484Z,2.33
2019-02-09T01:06:35.802Z,1.47
2019-02-09T01:09:08.588Z,2.27
2019-02-09T01:11:38.016Z,2.50
2019-02-09T01:14:07.785Z,1.90
2019-02-09T01:16:40.004Z,2.30
2019-02-09T01:19:09.596Z,1.60
2019-02-09T01:21:38.937Z,2.40
2019-02-09T01:24:08.469Z,2.03
2019-02-09T01:26:37.791Z,2.33
2019-02-09T01:29:09.882Z,2.67
2019-02-09T01:31:39.703Z,2.55
2019-02-09T01:34:09.023Z,1.30
2019-02-09T01:36:38.657Z,2.85
2019-02-09T01:39:07.972Z,2.10
2019-02-09T01:41:37.606Z,2.87
2019-02-09T01:44:08.047Z,2.83
2019-02-09T01:46:37.750Z,2.55
2019-02-09T01:49:07.086Z,2.50
2019-02-09T01:51:50.725Z,2.30
2019-02-09T01:54:28.931Z,2.80
2019-02-09T01:57:03.490Z,2.15
2019-02-09T01:59:36.472Z,1.93
2019-02-09T02:02:06.080Z,2.30
2019-02-09T02:04:35.763Z,2.10
2019-02-09T02:07:05.408Z,1.93
2019-02-09T02:09:34.828Z,2.00
2019-02-09T02:12:05.144Z,1.57
2019-02-09T02:14:34.516Z,1.90
2019-02-09T02:17:03.859Z,2.07
2019-02-09T02:19:33.764Z,2.77
2019-02-09T02:22:03.099Z,2.07
2019-02-09T02:24:33.999Z,1.30
2019-02-09T02:27:03.685Z,1.80
2019-02-09T02:29:33.327Z,2.30
2019-02-09T02:32:02.650Z,1.93
2019-02-09T02:34:32.012Z,2.03
2019-02-09T02:37:01.634Z,2.15
2019-02-09T02:39:32.373Z,1.70
2019-02-09T02:42:01.992Z,1.90
2019-02-09T02:44:32.182Z,2.20
2019-02-09T02:47:03.114Z,2.20
2019-02-09T02:49:33.044Z,1.20
2019-02-09T02:52:03.195Z,2.00
2019-02-09T02:54:33.622Z,2.13
2019-02-09T02:57:03.212Z,2.50
2019-02-09T02:59:32.846Z,1.50
2019-02-09T03:02:02.189Z,2.37
2019-02-09T03:04:32.694Z,2.20
2019-02-09T03:07:02.030Z,2.23
2019-02-09T03:09:32.029Z,1.90
2019-02-09T03:12:01.661Z,2.02
2019-02-09T03:14:31.988Z,2.45
2019-02-09T03:17:02.993Z,1.70
2019-02-09T03:19:32.257Z,2.47
2019-02-09T03:22:02.876Z,2.37
2019-02-09T03:24:32.201Z,2.27
2019-02-09T03:27:01.853Z,2.03
2019-02-09T03:29:32.080Z,1.80
2019-02-09T03:32:01.733Z,2.20
2019-02-09T03:34:32.122Z,1.98
2019-02-09T03:37:02.760Z,1.87
2019-02-09T03:39:33.158Z,1.70
2019-02-09T03:42:02.739Z,1.53
2019-02-09T03:44:32.166Z,1.87
2019-02-09T03:47:01.840Z,1.47
2019-02-09T03:49:32.077Z,2.70
2019-02-09T03:52:01.411Z,1.60
2019-02-09T03:54:32.226Z,1.60
2019-02-09T03:57:01.752Z,1.57
2019-02-09T03:59:32.106Z,2.22
2019-02-09T04:02:01.732Z,2.58
2019-02-09T04:04:32.365Z,2.00
2019-02-09T04:07:01.996Z,2.20
2019-02-09T04:09:31.317Z,2.00
2019-02-09T04:12:00.971Z,2.10
2019-02-09T04:14:30.287Z,2.90
2019-02-09T04:16:59.952Z,1.57
2019-02-09T04:19:30.087Z,2.17
2019-02-09T04:21:59.426Z,2.43
2019-02-09T04:24:28.975Z,2.40
2019-02-09T04:26:58.309Z,2.10
2019-02-09T04:29:27.901Z,2.83
2019-02-09T04:31:57.235Z,2.63
2019-02-09T04:34:26.797Z,2.80
2019-02-09T04:36:56.134Z,2.77
2019-02-09T04:39:25.519Z,2.73
2019-02-09T04:41:54.986Z,2.70
2019-02-09T04:44:24.344Z,2.90
2019-02-09T04:46:54.290Z,2.27
2019-02-09T04:49:23.626Z,3.07
2019-02-09T04:51:53.104Z,3.33
2019-02-09T04:54:22.442Z,3.87
2019-02-09T04:56:51.948Z,3.57
2019-02-09T04:59:21.529Z,2.53
2019-02-09T05:01:51.005Z,3.60
2019-02-09T05:04:21.443Z,3.43
2019-02-09T05:06:51.155Z,2.93
2019-02-09T05:09:20.494Z,3.40
2019-02-09T05:11:50.110Z,3.05
2019-02-09T05:14:19.442Z,2.00
2019-02-09T05:16:49.356Z,2.95
2019-02-09T05:19:18.712Z,2.90
2019-02-09T05:21:48.336Z,4.17
2019-02-09T05:24:17.686Z,4.23
2019-02-09T05:26:48.649Z,2.63
2019-02-09T05:29:18.056Z,3.03
2019-02-09T05:31:47.701Z,3.63
2019-02-09T05:34:17.219Z,2.73
2019-02-09T05:36:46.561Z,2.70
2019-02-09T05:39:16.098Z,4.33
2019-02-09T05:41:47.193Z,3.15
2019-02-09T05:44:16.545Z,5.27
2019-02-09T05:46:46.440Z,4.77
2019-02-09T05:49:15.784Z,2.10
2019-02-09T05:51:45.648Z,3.87
2019-02-09T05:54:15.189Z,3.57
2019-02-09T05:56:44.512Z,2.70
2019-02-09T05:59:14.141Z,2.73
2019-02-09T06:01:43.517Z,4.80
2019-02-09T06:04:14.479Z,4.70
2019-02-09T06:06:45.180Z,5.80
2019-02-09T06:09:14.775Z,3.77
2019-02-09T06:11:44.413Z,4.30
2019-02-09T06:14:13.759Z,3.30
2019-02-09T06:16:43.425Z,3.33
2019-02-09T06:19:12.818Z,2.70
2019-02-09T06:21:42.338Z,3.43
2019-02-09T06:24:11.672Z,2.73
2019-02-09T06:26:41.335Z,1.90
2019-02-09T06:29:10.915Z,1.50
2019-02-09T06:31:41.324Z,2.95
2019-02-09T06:34:11.160Z,2.60
2019-02-09T06:36:40.518Z,1.70
2019-02-09T06:39:10.179Z,3.00
2019-02-09T06:41:39.515Z,4.00
2019-02-09T06:44:10.247Z,8.45
2019-02-09T06:46:41.344Z,8.73
2019-02-09T06:49:10.688Z,3.20
2019-02-09T06:51:40.569Z,1.98
2019-02-09T06:54:09.905Z,2.10
2019-02-09T06:56:39.891Z,2.47
2019-02-09T06:59:09.390Z,3.30
2019-02-09T07:01:38.704Z,2.85
2019-02-09T07:04:08.705Z,6.03
2019-02-09T07:06:38.327Z,10.93
2019-02-09T07:09:08.343Z,12.67
2019-02-09T07:11:37.674Z,11.13
2019-02-09T07:14:07.363Z,12.10
2019-02-09T07:16:36.734Z,10.25
2019-02-09T07:19:06.594Z,5.12
2019-02-09T07:21:37.878Z,4.37
2019-02-09T07:24:07.383Z,6.60
2019-02-09T07:26:36.732Z,10.47
2019-02-09T07:29:06.346Z,7.93
2019-02-09T07:31:35.975Z,3.40
2019-02-09T07:34:05.476Z,4.83
2019-02-09T07:36:34.818Z,7.03
2019-02-09T07:39:07.287Z,6.10
2019-02-09T07:41:36.864Z,4.03
2019-02-09T07:44:06.613Z,3.70
2019-02-09T07:46:36.897Z,4.53
2019-02-09T07:49:07.497Z,6.97
2019-02-09T07:51:36.834Z,6.93
2019-02-09T07:54:06.393Z,4.00
2019-02-09T07:56:35.717Z,6.20
2019-02-09T07:59:05.734Z,4.70
2019-02-09T08:01:35.310Z,4.93
2019-02-09T08:04:05.184Z,4.23
2019-02-09T08:06:34.792Z,5.63
2019-02-09T08:09:07.856Z,7.87
2019-02-09T08:11:37.722Z,4.72
2019-02-09T08:14:07.806Z,2.37
2019-02-09T08:16:37.157Z,4.00
2019-02-09T08:19:06.623Z,2.83
2019-02-09T08:21:37.889Z,4.60
2019-02-09T08:24:07.558Z,4.77
2019-02-09T08:26:36.876Z,2.95
2019-02-09T08:29:06.758Z,2.47
2019-02-09T08:31:36.959Z,2.35
2019-02-09T08:34:06.647Z,1.60
2019-02-09T08:36:35.969Z,2.40
2019-02-09T08:39:07.488Z,3.10
2019-02-09T08:41:37.048Z,3.65
2019-02-09T08:44:06.692Z,1.30
2019-02-09T08:46:36.014Z,2.63
2019-02-09T08:49:05.596Z,4.93
2019-02-09T08:51:35.445Z,4.07
2019-02-09T08:54:04.786Z,2.63
2019-02-09T08:56:34.700Z,2.75
2019-02-09T08:59:06.529Z,4.42
2019-02-09T09:01:35.897Z,2.93
2019-02-09T09:04:05.580Z,1.60
2019-02-09T09:06:34.939Z,3.30
2019-02-09T09:09:07.869Z,1.40
2019-02-09T09:11:37.217Z,2.40
2019-02-09T09:14:07.036Z,2.53
2019-02-09T09:16:36.676Z,2.40
2019-02-09T09:19:07.592Z,2.00
2019-02-09T09:21:36.946Z,1.87
2019-02-09T09:24:06.682Z,3.40
2019-02-09T09:26:36.310Z,2.07
2019-02-09T09:29:05.824Z,2.30
2019-02-09T09:31:35.156Z,1.40
2019-02-09T09:34:05.271Z,2.07
2019-02-09T09:36:34.934Z,1.93
2019-02-09T09:39:07.744Z,2.65
2019-02-09T09:41:45.805Z,3.10
2019-02-09T09:44:15.135Z,2.23
2019-02-09T09:46:44.801Z,1.67
2019-02-09T09:49:14.136Z,2.73
2019-02-09T09:51:43.864Z,2.25
2019-02-09T09:54:13.210Z,1.77
2019-02-09T09:56:43.110Z,2.15
2019-02-09T09:59:12.738Z,1.80
2019-02-09T10:01:42.201Z,0.93
2019-02-09T10:04:12.311Z,1.07
2019-02-09T10:06:44.314Z,1.65
2019-02-09T10:09:14.124Z,1.40
2019-02-09T10:11:43.750Z,2.90
2019-02-09T10:14:13.095Z,2.00
2019-02-09T10:16:42.723Z,2.40
2019-02-09T10:19:12.348Z,1.50
2019-02-09T10:21:41.970Z,1.80
2019-02-09T10:24:12.425Z,2.22
2019-02-09T10:26:42.001Z,2.20
2019-02-09T10:29:11.806Z,2.30
2019-02-09T10:31:42.542Z,2.37
2019-02-09T10:34:12.071Z,2.53
2019-02-09T10:36:41.690Z,1.82
2019-02-09T10:39:11.961Z,1.90
2019-02-09T10:41:41.291Z,2.00
2019-02-09T11:24:28.482Z,2.60
2019-02-09T11:26:58.204Z,3.10
2019-02-09T11:29:27.545Z,1.67
2019-02-09T11:31:57.238Z,1.30
2019-02-09T11:34:27.404Z,1.82
2019-02-09T11:36:56.970Z,2.80
2019-02-09T11:39:26.362Z,3.47
2019-02-09T11:41:55.917Z,3.13
2019-02-09T11:44:25.246Z,4.27
2019-02-09T11:46:55.940Z,3.00
2019-02-09T11:49:25.445Z,3.83
2019-02-09T11:51:54.928Z,3.20
2019-02-09T11:54:24.276Z,2.80
2019-02-09T11:56:53.942Z,2.50
2019-02-09T11:59:23.510Z,7.73
2019-02-09T12:01:53.147Z,2.50
2019-02-09T12:04:22.714Z,2.60
2019-02-09T12:06:52.219Z,1.77
2019-02-09T12:09:21.561Z,1.77
2019-02-09T12:11:50.998Z,1.60
2019-02-09T12:14:20.320Z,2.50
2019-02-09T12:16:49.750Z,2.40
2019-02-09T12:19:19.087Z,2.53
2019-02-09T12:21:48.451Z,2.15
2019-02-09T12:24:19.568Z,1.97
2019-02-09T12:26:49.355Z,1.92
2019-02-09T12:29:18.682Z,1.60
2019-02-09T12:31:48.344Z,1.70
2019-02-09T12:34:17.681Z,2.60
2019-02-09T12:36:47.629Z,1.80
2019-02-09T12:39:17.184Z,1.60
2019-02-09T12:41:46.838Z,1.67
2019-02-09T12:44:16.231Z,1.10
2019-02-09T12:46:45.607Z,2.17
2019-02-09T12:49:15.162Z,1.93
2019-02-09T12:51:46.071Z,4.55
2019-02-09T12:54:15.408Z,1.40
2019-02-09T12:56:45.146Z,2.33
2019-02-09T12:59:15.326Z,1.70
2019-02-09T13:01:44.753Z,2.10
2019-02-09T13:04:14.400Z,1.37
2019-02-09T13:06:45.215Z,2.23
2019-02-09T13:09:15.262Z,2.00
2019-02-09T13:11:44.995Z,2.40
2019-02-09T13:14:15.008Z,2.03
2019-02-09T13:16:44.693Z,1.50
2019-02-09T13:19:14.496Z,1.27
2019-02-09T13:21:44.307Z,2.02
2019-02-09T13:24:13.667Z,1.90
2019-02-09T13:26:43.760Z,1.25
2019-02-09T13:29:13.369Z,1.33
2019-02-09T13:31:44.511Z,1.77
2019-02-09T13:34:14.429Z,1.27
2019-02-09T13:36:43.779Z,1.67
2019-02-09T13:39:13.326Z,1.53
2019-02-09T13:41:42.977Z,1.30
2019-02-09T13:44:12.462Z,1.63
2019-02-09T13:46:41.829Z,1.72
2019-02-09T13:49:11.502Z,1.80
2019-02-09T13:51:40.837Z,1.40
2019-02-09T13:54:10.338Z,2.27
2019-02-09T13:56:42.336Z,2.85
2019-02-09T13:59:11.728Z,2.23
2019-02-09T14:01:41.350Z,1.85
2019-02-09T14:04:10.696Z,1.23
2019-02-09T14:06:40.047Z,2.30
2019-02-09T14:09:09.498Z,1.90
2019-02-09T14:11:39.967Z,1.92
2019-02-09T14:14:09.559Z,2.20
2019-02-09T14:16:39.119Z,1.33
2019-02-09T14:19:08.677Z,4.20
2019-02-09T14:21:39.692Z,2.30
2019-02-09T14:24:10.467Z,2.57
2019-02-09T14:26:41.155Z,1.30
2019-02-09T14:29:10.692Z,1.47
2019-02-09T14:31:40.023Z,1.17
2019-02-09T14:34:09.553Z,1.00
2019-02-09T14:36:38.898Z,1.30
2019-02-09T14:39:10.413Z,1.20
2019-02-09T14:41:39.940Z,1.35
2019-02-09T14:44:09.559Z,1.00
2019-02-09T14:46:39.981Z,1.53
2019-02-09T14:49:09.605Z,2.37
2019-02-09T14:51:38.979Z,1.80
2019-02-09T14:54:09.643Z,1.27
2019-02-09T14:56:39.270Z,1.10
2019-02-09T14:59:08.804Z,1.30
2019-02-09T15:01:38.235Z,1.83
2019-02-09T15:04:07.786Z,2.47
2019-02-09T15:06:37.580Z,2.13
2019-02-09T15:09:08.426Z,1.85
2019-02-09T15:11:37.799Z,2.10
2019-02-09T15:14:07.211Z,2.17
2019-02-09T15:16:37.032Z,2.33
2019-02-09T15:19:06.341Z,4.83
2019-02-09T15:21:35.990Z,5.10
2019-02-09T15:24:05.896Z,2.00
2019-02-09T15:26:35.512Z,2.10
2019-02-09T15:29:05.459Z,1.90
2019-02-09T15:31:35.491Z,2.22
2019-02-09T15:34:10.110Z,2.47
2019-02-09T15:36:37.266Z,2.00
2019-02-09T15:39:08.295Z,2.40
2019-02-09T15:41:42.304Z,1.80
2019-02-09T15:44:11.677Z,2.30
2019-02-09T15:46:41.312Z,2.60
2019-02-09T15:49:10.893Z,1.60
2019-02-09T15:51:40.554Z,2.93
2019-02-09T15:54:10.202Z,2.70
2019-02-09T15:56:39.823Z,3.03
2019-02-09T15:59:15.671Z,1.97
2019-02-09T16:01:48.285Z,1.80
2019-02-09T16:04:18.300Z,3.63
2019-02-09T16:06:47.740Z,2.13
2019-02-09T16:09:17.388Z,1.90
2019-02-09T16:11:47.024Z,2.17
2019-02-09T16:14:16.367Z,1.93
2019-02-09T16:16:45.807Z,2.00
2019-02-09T16:19:15.379Z,2.27
2019-02-09T16:21:44.971Z,1.83
2019-02-09T16:24:14.329Z,2.63
2019-02-09T16:26:43.656Z,1.63
2019-02-09T16:29:13.330Z,2.50
2019-02-09T16:31:42.855Z,2.37
2019-02-09T16:34:12.327Z,1.90
2019-02-09T16:36:42.001Z,2.03
2019-02-09T16:39:11.332Z,1.77
2019-02-09T16:41:40.706Z,1.17
2019-02-09T16:44:10.328Z,1.70
2019-02-09T16:46:39.677Z,2.57
2019-02-09T16:49:09.295Z,2.27
2019-02-09T16:51:38.640Z,1.13
2019-02-09T16:54:08.259Z,1.50
2019-02-09T16:56:37.893Z,2.43
2019-02-09T16:59:07.471Z,1.70
2019-02-09T17:01:36.839Z,2.00
2019-02-09T17:04:06.387Z,2.23
2019-02-09T17:06:36.298Z,1.53
2019-02-09T17:09:07.477Z,2.97
2019-02-09T17:11:37.087Z,2.27
2019-02-09T17:14:07.094Z,3.17
2019-02-09T17:16:36.788Z,2.03
2019-02-09T17:19:06.422Z,1.93
2019-02-09T17:21:35.792Z,3.67
2019-02-09T17:24:06.493Z,1.87
2019-02-09T17:26:36.508Z,1.80
2019-02-09T17:29:05.874Z,2.00
2019-02-09T17:31:35.827Z,1.90
2019-02-09T17:34:05.478Z,2.47
2019-02-09T17:36:35.252Z,2.40
2019-02-09T17:39:06.352Z,2.00
2019-02-09T17:41:36.013Z,1.50
2019-02-09T17:44:13.079Z,2.30
2019-02-09T17:46:42.735Z,1.97
2019-02-09T17:49:12.051Z,2.53
2019-02-09T17:51:42.009Z,2.93
2019-02-09T17:54:11.465Z,2.10
2019-02-09T17:56:40.832Z,2.72
2019-02-09T17:59:10.753Z,2.25
2019-02-09T18:01:40.410Z,1.90
2019-02-09T18:04:09.985Z,2.33
2019-02-09T18:06:39.638Z,2.65
2019-02-09T18:09:09.041Z,2.30
2019-02-09T18:11:38.763Z,2.98
2019-02-09T18:14:08.155Z,2.00
2019-02-09T18:16:37.877Z,3.17
2019-02-09T18:19:08.509Z,2.80
2019-02-09T18:21:37.883Z,2.53
2019-02-09T18:24:07.210Z,2.27
2019-02-09T18:26:39.227Z,2.47
2019-02-09T18:29:08.738Z,2.10
2019-02-09T18:31:38.508Z,2.30
2019-02-09T18:34:07.836Z,2.93
2019-02-09T18:36:37.507Z,2.00
2019-02-09T18:39:09.710Z,1.97
2019-02-09T18:41:41.047Z,2.67
2019-02-09T18:44:10.674Z,3.17
2019-02-09T18:46:40.324Z,2.80
2019-02-09T18:49:09.659Z,2.20
2019-02-09T18:51:39.066Z,3.50
2019-02-09T18:54:09.731Z,2.27
2019-02-09T18:56:39.066Z,2.70
2019-02-09T18:59:08.675Z,3.00
2019-02-09T19:01:38.293Z,2.93
2019-02-09T19:04:07.886Z,2.70
2019-02-09T19:06:37.210Z,1.70
2019-02-09T19:09:07.933Z,2.10
2019-02-09T19:11:37.808Z,2.98
2019-02-09T19:14:09.878Z,2.10
2019-02-09T19:16:39.214Z,2.13
2019-02-09T19:19:09.083Z,2.40
2019-02-09T19:21:38.754Z,2.27
2019-02-09T19:24:08.093Z,1.63
2019-02-09T19:26:37.708Z,4.67
2019-02-09T19:29:07.062Z,3.50
2019-02-09T19:31:36.686Z,2.40
2019-02-09T19:34:06.114Z,1.50
2019-02-09T19:36:36.398Z,2.10
2019-02-09T19:39:07.508Z,2.17
2019-02-09T19:41:37.293Z,1.90
2019-02-09T19:44:06.873Z,2.60
2019-02-09T19:46:36.513Z,2.70
2019-02-09T19:49:06.000Z,2.40
2019-02-09T19:51:37.156Z,2.52
2019-02-09T19:54:06.721Z,3.00
2019-02-09T19:56:36.342Z,2.83
2019-02-09T19:59:05.906Z,2.63
2019-02-09T20:01:35.240Z,8.47
2019-02-09T20:04:05.214Z,7.40
2019-02-09T20:06:35.120Z,4.87
2019-02-09T20:09:06.852Z,3.87
2019-02-09T20:11:36.550Z,2.00
2019-02-09T20:14:05.968Z,1.80
2019-02-09T20:16:35.341Z,3.23
2019-02-09T20:19:05.252Z,2.67
2019-02-09T20:21:35.853Z,2.33
2019-02-09T20:24:05.809Z,1.47
2019-02-09T20:26:35.189Z,3.13
2019-02-09T20:29:04.707Z,2.20
2019-02-09T20:31:35.245Z,2.05
2019-02-09T20:34:06.334Z,2.47
2019-02-09T20:36:35.954Z,1.80
2019-02-09T20:39:07.942Z,3.37
2019-02-09T20:41:37.629Z,1.63
2019-02-09T20:44:07.003Z,2.90
2019-02-09T20:46:36.575Z,3.60
2019-02-09T20:49:06.251Z,3.03
2019-02-09T20:51:36.167Z,2.53
2019-02-09T20:54:05.873Z,3.25
2019-02-09T20:56:35.273Z,3.10
2019-02-09T20:59:04.982Z,1.70
2019-02-09T21:01:35.565Z,2.52
2019-02-09T21:04:04.994Z,3.43
2019-02-09T21:06:35.276Z,3.60
2019-02-09T21:09:07.488Z,1.70
2019-02-09T21:11:37.169Z,2.50
2019-02-09T21:14:07.098Z,3.30
2019-02-09T21:16:36.429Z,2.70
2019-02-09T21:19:06.680Z,1.97
2019-02-09T21:21:36.295Z,3.45
2019-02-09T21:24:07.373Z,3.63
2019-02-09T21:26:37.260Z,2.50
2019-02-09T21:29:06.601Z,2.90
2019-02-09T21:31:36.271Z,2.80
2019-02-09T21:34:05.978Z,2.70
2019-02-09T21:36:35.476Z,3.10
2019-02-09T21:39:07.737Z,2.00
2019-02-09T21:41:37.257Z,3.30
2019-02-09T21:44:06.656Z,2.40
2019-02-09T21:46:36.318Z,2.67
2019-02-09T21:49:06.286Z,2.80
2019-02-09T21:51:35.932Z,2.87
2019-02-09T21:54:05.364Z,2.10
2019-02-09T21:56:35.616Z,2.92
2019-02-09T21:59:05.466Z,2.30
2019-02-09T22:01:35.550Z,2.60
2019-02-09T22:04:05.238Z,2.73
2019-02-09T22:06:35.426Z,1.57
2019-02-09T22:09:07.553Z,1.98
2019-02-09T22:11:37.508Z,2.52
2019-02-09T22:14:07.223Z,1.95
2019-02-09T22:16:36.920Z,2.23
2019-02-09T22:19:06.556Z,2.63
2019-02-09T22:21:36.626Z,3.30
2019-02-09T22:24:06.222Z,2.93
2019-02-09T22:26:35.561Z,2.63
2019-02-09T22:29:05.200Z,2.40
2019-02-09T22:31:35.550Z,3.10
2019-02-09T22:34:05.331Z,2.70
2019-02-09T22:36:37.144Z,1.90
2019-02-09T22:39:07.671Z,3.43
2019-02-09T22:41:37.609Z,2.90
2019-02-09T22:44:07.234Z,2.90
2019-02-09T22:46:36.912Z,2.90
2019-02-09T22:49:06.247Z,2.07
2019-02-09T22:51:35.586Z,3.30
2019-02-09T22:54:05.782Z,3.13
2019-02-09T22:56:35.748Z,3.10
2019-02-09T22:59:05.366Z,3.50
2019-02-09T23:01:41.451Z,3.17
2019-02-09T23:04:14.502Z,2.83
2019-02-09T23:06:53.232Z,3.98
2019-02-09T23:09:22.583Z,3.47
2019-02-09T23:11:51.948Z,3.15
2019-02-09T23:14:21.757Z,3.30
2019-02-09T23:16:51.377Z,3.00
2019-02-09T23:19:20.967Z,3.80
2019-02-09T23:21:50.783Z,4.23
2019-02-09T23:24:20.277Z,2.50
2019-02-09T23:26:49.904Z,3.53
2019-02-09T23:29:19.664Z,2.60
2019-02-09T23:31:49.290Z,3.45
2019-02-09T23:34:19.704Z,3.13
2019-02-09T23:36:49.331Z,3.55
2019-02-09T23:39:18.690Z,3.80
2019-02-09T23:41:48.880Z,3.25
2019-02-09T23:44:18.692Z,2.57
2019-02-09T23:46:48.615Z,3.15
2019-02-09T23:49:18.253Z,2.92
2019-02-09T23:51:47.949Z,2.60
2019-02-09T23:54:17.379Z,2.60
2019-02-09T23:56:47.000Z,3.43
2019-02-09T23:59:16.522Z,3.60
